createdAt,value
2022-08-26T00:01:46.979Z,1020.8
2022-08-26T00:07:32.653Z,1020.8
2022-08-26T00:13:12.923Z,1021
2022-08-26T00:18:53.273Z,1021.1
2022-08-26T00:24:33.764Z,1021.2
2022-08-26T00:30:15.816Z,1021.4
2022-08-26T00:41:12.929Z,1021.5
2022-08-26T00:46:54.168Z,1021.3
2022-08-26T00:52:34.585Z,1021.4
2022-08-26T00:58:15.098Z,1021.4
2022-08-26T01:03:56.380Z,1021.4
2022-08-26T01:09:39.919Z,1021.5
2022-08-26T01:15:24.376Z,1021.5
2022-08-26T01:21:04.792Z,1021.7
2022-08-26T01:26:48.823Z,1021.6
2022-08-26T01:32:29.956Z,1021.7
2022-08-26T01:38:12.642Z,1021.6
2022-08-26T01:43:53.005Z,1021.6
2022-08-26T01:49:34.736Z,1021.6
2022-08-26T01:55:35.184Z,1021.9
2022-08-26T02:01:17.010Z,1021.8
2022-08-26T02:06:59.419Z,1021.9
2022-08-26T02:12:39.522Z,1021.9
2022-08-26T02:18:25.320Z,1022
2022-08-26T02:24:08.919Z,1022.1
2022-08-26T02:29:50.502Z,1022.1
2022-08-26T02:35:31.910Z,1022
2022-08-26T02:41:12.544Z,1022
2022-08-26T02:46:54.644Z,1022
2022-08-26T02:52:35.185Z,1022
2022-08-26T02:58:15.408Z,1021.9
2022-08-26T03:03:55.993Z,1021.9
2022-08-26T03:09:36.145Z,1021.9
2022-08-26T03:15:18.820Z,1021.9
2022-08-26T03:21:01.874Z,1021.9
2022-08-26T03:26:53.433Z,1021.9
2022-08-26T03:32:34.183Z,1021.9
2022-08-26T03:38:14.360Z,1021.9
2022-08-26T03:44:04.475Z,1021.9
2022-08-26T03:57:19.528Z,1022
2022-08-26T04:02:59.880Z,1021.9
2022-08-26T04:08:40.991Z,1021.9
2022-08-26T04:14:24.064Z,1022
2022-08-26T04:20:09.896Z,1022
2022-08-26T04:26:10.838Z,1022
2022-08-26T04:31:59.976Z,1022
2022-08-26T04:37:43.534Z,1022.1
2022-08-26T04:43:25.387Z,1022.1
2022-08-26T04:49:07.396Z,1022.1
2022-08-26T04:54:48.271Z,1022.1
2022-08-26T05:00:28.868Z,1022.1
2022-08-26T05:06:09.792Z,1022.1
2022-08-26T05:11:52.653Z,1022
2022-08-26T05:17:36.111Z,1022
2022-08-26T05:23:16.295Z,1022
2022-08-26T05:28:58.860Z,1022
2022-08-26T05:34:43.554Z,1022.1
2022-08-26T05:40:26.304Z,1022.1
2022-08-26T05:46:07.736Z,1022.1
2022-08-26T05:51:54.264Z,1022.1
2022-08-26T05:57:43.244Z,1022.2
2022-08-26T06:03:39.364Z,1022.2
2022-08-26T06:09:21.805Z,1022.2
2022-08-26T06:15:04.494Z,1022.3
2022-08-26T06:20:58.571Z,1022.4
2022-08-26T06:26:46.840Z,1022.4
2022-08-26T06:32:32.508Z,1022.4
2022-08-26T06:38:13.270Z,1022.4
2022-08-26T06:43:53.508Z,1022.5
2022-08-26T06:49:33.723Z,1022.5
2022-08-26T06:55:14.365Z,1022.4
2022-08-26T07:01:11.825Z,1022.4
2022-08-26T07:06:56.440Z,1022.4
2022-08-26T07:12:37.729Z,1022.3
2022-08-26T07:18:23.123Z,1022.3
2022-08-26T07:24:05.342Z,1022.2
2022-08-26T07:29:51.936Z,1022.2
2022-08-26T07:35:32.970Z,1022.1
2022-08-26T07:41:19.664Z,1021.9
2022-08-26T07:47:26.405Z,1021.9
2022-08-26T07:53:21.931Z,1021.8
2022-08-26T07:59:15.348Z,1021.6
2022-08-26T08:04:55.739Z,1021.4
2022-08-26T08:10:36.672Z,1021.6
2022-08-26T08:16:19.550Z,1021.7
2022-08-26T08:22:02.057Z,1021.8
2022-08-26T08:27:43.077Z,1021.5
2022-08-26T08:33:23.346Z,1021.2
2022-08-26T08:39:06.784Z,1021.1
2022-08-26T08:44:53.446Z,1021
2022-08-26T08:50:46.188Z,1020.9
2022-08-26T08:56:30.403Z,1021.1
2022-08-26T09:02:12.061Z,1021
2022-08-26T09:07:53.112Z,1021.1
2022-08-26T09:13:35.564Z,1021.1
2022-08-26T09:19:19.953Z,1021.3
2022-08-26T09:25:02.078Z,1021.5
2022-08-26T09:30:45.398Z,1021.6
2022-08-26T09:36:27.322Z,1021.9
2022-08-26T09:42:07.602Z,1022
2022-08-26T09:47:50.509Z,1022
2022-08-26T09:53:32.293Z,1022
2022-08-26T09:59:13.237Z,1022.1
2022-08-26T10:04:53.225Z,1022.2
2022-08-26T10:10:38.514Z,1022
2022-08-26T10:16:30.871Z,1021.9
2022-08-26T10:22:12.872Z,1021.8
2022-08-26T10:27:54.294Z,1021.7
2022-08-26T10:33:37.763Z,1021.4
2022-08-26T10:39:19.080Z,1021.2
2022-08-26T10:45:01.094Z,1021.1
2022-08-26T10:50:42.613Z,1020.9
2022-08-26T10:56:23.681Z,1020.8
2022-08-26T11:02:04.991Z,1020.6
2022-08-26T11:07:45.445Z,1020.5
2022-08-26T11:13:26.176Z,1021.1
2022-08-26T11:19:06.297Z,1021
2022-08-26T11:24:46.834Z,1021
2022-08-26T11:30:27.046Z,1021.2
2022-08-26T11:36:15.550Z,1021.4
2022-08-26T11:41:58.128Z,1021.5
2022-08-26T11:47:40.945Z,1020.9
2022-08-26T11:53:23.166Z,1020.5
2022-08-26T11:59:06.384Z,1020.2
2022-08-26T12:04:47.066Z,1020.2
2022-08-26T12:10:29.904Z,1020
2022-08-26T12:16:11.229Z,1019.7
2022-08-26T12:21:51.731Z,1019.8
2022-08-26T12:27:34.473Z,1019.9
2022-08-26T12:33:24.095Z,1019.9
2022-08-26T12:39:06.367Z,1020.3
2022-08-26T12:44:54.907Z,1020.2
2022-08-26T12:50:35.466Z,1019.7
2022-08-26T12:56:16.186Z,1019
2022-08-26T13:01:56.994Z,1018.8
2022-08-26T13:07:38.315Z,1019
2022-08-26T13:13:18.612Z,1019
2022-08-26T13:18:58.661Z,1019.1
2022-08-26T13:24:39.518Z,1018.7
2022-08-26T13:30:19.482Z,1018.4
2022-08-26T13:35:59.381Z,1019.9
2022-08-26T13:41:39.199Z,1020.8
2022-08-26T13:47:19.417Z,1021.4
2022-08-26T13:52:59.564Z,1021.2
2022-08-26T13:58:39.896Z,1021
2022-08-26T14:04:27.748Z,1020.9
2022-08-26T14:10:07.816Z,1020.9
2022-08-26T14:20:51.359Z,1020.9
2022-08-26T14:26:31.699Z,1020.6
2022-08-26T14:32:12.519Z,1021.1
2022-08-26T14:37:52.906Z,1020.8
2022-08-26T14:43:32.668Z,1021.1
2022-08-26T14:49:15.201Z,1021.3
2022-08-26T14:54:55.736Z,1021.7
2022-08-26T15:00:35.930Z,1022
2022-08-26T15:06:16.076Z,1022.1
2022-08-26T15:11:56.290Z,1022.1
2022-08-26T15:17:38.350Z,1022.1
2022-08-26T15:23:21.531Z,1022.2
2022-08-26T15:29:05.738Z,1022.6
2022-08-26T15:34:46.481Z,1022.5
2022-08-26T15:40:27.099Z,1022.6
2022-08-26T15:46:08.153Z,1022.6
2022-08-26T15:51:48.742Z,1022.5
2022-08-26T15:57:30.945Z,1022.4
2022-08-26T16:03:11.222Z,1022.4
2022-08-26T16:08:51.251Z,1022.3
2022-08-26T16:14:31.802Z,1022.3
2022-08-26T16:20:12.102Z,1022.2
2022-08-26T16:25:52.326Z,1022.3
2022-08-26T16:31:33.189Z,1022.1
2022-08-26T16:37:14.488Z,1022.1
2022-08-26T16:42:54.731Z,1022
2022-08-26T16:48:36.416Z,1021.8
2022-08-26T16:54:16.746Z,1021.8
2022-08-26T16:59:56.872Z,1021.6
2022-08-26T17:05:36.891Z,1021.7
2022-08-26T17:11:17.209Z,1021.7
2022-08-26T17:16:57.446Z,1021.7
2022-08-26T17:22:37.558Z,1021.7
2022-08-26T17:28:20.619Z,1021.9
2022-08-26T17:34:01.306Z,1022
2022-08-26T17:39:41.443Z,1022.1
2022-08-26T17:45:21.766Z,1022.1
2022-08-26T17:51:04.726Z,1022.4
2022-08-26T17:57:00.037Z,1022.9
2022-08-26T18:02:55.638Z,1023.1
2022-08-26T18:08:40.044Z,1023.2
2022-08-26T18:14:29.714Z,1023.3
2022-08-26T18:20:18.295Z,1023.3
2022-08-26T18:26:01.555Z,1023.3
2022-08-26T18:31:54.645Z,1023.3
2022-08-26T18:37:34.975Z,1023.4
2022-08-26T18:43:18.006Z,1023.3
2022-08-26T18:48:58.341Z,1023.4
2022-08-26T18:54:38.743Z,1023.5
2022-08-26T19:00:19.037Z,1023.5
2022-08-26T19:06:02.165Z,1023.4
2022-08-26T19:11:45.939Z,1023.4
2022-08-26T19:17:31.899Z,1023.3
2022-08-26T19:23:32.979Z,1023.2
2022-08-26T19:29:20.167Z,1023.2
2022-08-26T19:35:00.528Z,1023.2
2022-08-26T19:40:41.090Z,1023.3
2022-08-26T19:46:21.791Z,1023.2
2022-08-26T19:52:04.685Z,1023.3
2022-08-26T19:57:45.236Z,1023.4
2022-08-26T20:03:25.727Z,1023.4
2022-08-26T20:09:06.113Z,1023.4
2022-08-26T20:14:46.887Z,1023.4
2022-08-26T20:20:34.162Z,1023.4
2022-08-26T20:26:18.664Z,1023.4
2022-08-26T20:32:05.630Z,1023.4
2022-08-26T20:37:49.337Z,1023.4
2022-08-26T20:43:39.015Z,1023.2
2022-08-26T20:49:20.353Z,1023.1
2022-08-26T20:55:01.100Z,1023.2
2022-08-26T21:00:41.538Z,1023.3
2022-08-26T21:06:24.175Z,1023.2
2022-08-26T21:12:04.661Z,1023.2
2022-08-26T21:17:44.805Z,1023.2
2022-08-26T21:23:29.616Z,1023.2
2022-08-26T21:29:10.276Z,1023.4
2022-08-26T21:34:54.230Z,1023.5
2022-08-26T21:40:34.813Z,1023.5
2022-08-26T21:46:15.508Z,1023.5
2022-08-26T21:51:55.553Z,1023.4
2022-08-26T21:57:35.972Z,1023.4
2022-08-26T22:03:17.097Z,1023.4
2022-08-26T22:08:57.343Z,1023.2
2022-08-26T22:14:37.604Z,1023.2
2022-08-26T22:20:17.799Z,1023.2
2022-08-26T22:26:01.502Z,1023.2
2022-08-26T22:31:42.132Z,1023.3
2022-08-26T22:37:22.811Z,1023.3
2022-08-26T22:43:03.136Z,1023.3
2022-08-26T22:48:43.387Z,1023.3
2022-08-26T22:54:23.651Z,1023.2
2022-08-26T23:00:06.749Z,1023.3
2022-08-26T23:05:50.718Z,1023.3
2022-08-26T23:11:35.469Z,1023.3
2022-08-26T23:17:16.067Z,1023.3
2022-08-26T23:22:56.511Z,1023.3
2022-08-26T23:28:36.812Z,1023.3
2022-08-26T23:34:20.713Z,1023.3
2022-08-26T23:40:03.393Z,1023.3
2022-08-26T23:45:44.816Z,1023.2
2022-08-26T23:51:25.682Z,1023.2
2022-08-26T23:57:09.145Z,1023.2
